Time;durP1;ratioP1;P1;durP2;ratioP2;P2;SDS_P1;SDS_P2;PMS_P1;PMS_P2;Temp;Humidity;BMP_temperature;BMP_pressure;BME280_temperature;BME280_humidity;BME280_pressure;Samples;Min_cycle;Max_cycle;Signal;HPM_P1;HPM_P2
2022/03/18 00:02:29;;;;;;;30.02;15.23;;;;;;;4.19;100.00;102781.00;8317665;28;20104;-64
2022/03/18 00:06:30;;;;;;;31.67;13.90;;;;;;;3.95;100.00;102775.44;8317712;28;20131;-64
2022/03/18 00:10:31;;;;;;;38.08;15.20;;;;;;;4.01;100.00;102783.28;8317834;28;20043;-64
2022/03/18 00:14:32;;;;;;;32.63;15.23;;;;;;;4.13;100.00;102781.16;8317040;28;20038;-64
2022/03/18 00:18:32;;;;;;;30.63;14.77;;;;;;;3.99;100.00;102774.44;8317486;28;20338;-64
2022/03/18 00:22:34;;;;;;;29.13;15.57;;;;;;;4.04;100.00;102787.69;8318024;28;20470;-64
2022/03/18 00:26:34;;;;;;;31.48;14.73;;;;;;;3.87;100.00;102782.78;8317837;28;20570;-64
2022/03/18 00:30:34;;;;;;;29.85;15.40;;;;;;;3.88;100.00;102794.38;8317543;28;20410;-64
2022/03/18 00:34:35;;;;;;;41.28;17.83;;;;;;;3.99;100.00;102790.47;8315474;28;20084;-64
2022/03/18 00:38:35;;;;;;;30.38;15.15;;;;;;;4.23;100.00;102790.69;8318004;28;20045;-64
2022/03/18 00:42:37;;;;;;;30.38;15.02;;;;;;;4.09;100.00;102797.31;8315893;28;20042;-64
2022/03/18 00:46:37;;;;;;;35.33;14.23;;;;;;;3.86;100.00;102789.06;8317296;28;20431;-64
2022/03/18 00:52:14;;;;;;;31.20;14.85;;;;;;;3.73;100.00;102787.63;8316949;28;20095;-64
2022/03/18 00:54:58;;;;;;;28.63;14.52;;;;;;;3.49;100.00;102788.31;8312520;28;20033;-64
2022/03/18 00:58:58;;;;;;;39.45;15.90;;;;;;;3.60;100.00;102791.56;8315820;28;20373;-64
2022/03/18 01:02:58;;;;;;;33.15;16.17;;;;;;;3.70;100.00;102792.22;8315498;28;20052;-64
2022/03/18 01:06:59;;;;;;;31.80;14.63;;;;;;;3.63;100.00;102788.81;8317020;28;20472;-64
2022/03/18 01:11:01;;;;;;;29.23;14.57;;;;;;;3.82;100.00;102791.88;8332011;28;20052;-64
2022/03/18 01:15:01;;;;;;;35.40;14.32;;;;;;;3.53;100.00;102784.63;8317149;28;20060;-64
2022/03/18 01:19:02;;;;;;;33.67;15.45;;;;;;;3.61;100.00;102785.31;8316842;28;20046;-64
2022/03/18 01:23:06;;;;;;;31.73;14.65;;;;;;;3.54;100.00;102786.38;8317004;28;20554;-64
2022/03/18 01:27:06;;;;;;;29.13;13.57;;;;;;;3.49;100.00;102792.78;8316370;28;20041;-64
2022/03/18 01:31:07;;;;;;;30.27;14.68;;;;;;;3.47;100.00;102790.16;8320836;28;20471;-64
2022/03/18 01:35:08;;;;;;;26.98;14.45;;;;;;;3.07;100.00;102800.09;8320832;28;20413;-64
2022/03/18 01:39:08;;;;;;;24.38;13.77;;;;;;;3.06;100.00;102802.81;8321341;28;20041;-64
2022/03/18 01:43:10;;;;;;;40.40;14.48;;;;;;;2.92;100.00;102811.16;8322436;28;20091;-64
2022/03/18 01:47:11;;;;;;;32.35;14.95;;;;;;;2.89;100.00;102805.88;8322011;28;20370;-64
2022/03/18 01:51:15;;;;;;;26.40;14.43;;;;;;;2.93;100.00;102820.91;8321897;28;20552;-64
2022/03/18 01:55:16;;;;;;;;;;;;;;;2.91;100.00;102830.78;8322631;28;20056;-64
2022/03/18 01:59:17;;;;;;;33.47;15.90;;;;;;;2.84;100.00;102818.44;8320506;28;19916;-64
2022/03/18 02:03:17;;;;;;;36.08;15.88;;;;;;;2.83;100.00;102831.84;8308525;28;20052;-64
2022/03/18 02:07:18;;;;;;;43.38;16.52;;;;;;;2.93;100.00;102830.75;8321645;28;20044;-64
2022/03/18 02:11:19;;;;;;;36.00;16.67;;;;;;;2.86;100.00;102838.00;8322100;28;20041;-64
2022/03/18 02:15:19;;;;;;;42.42;15.75;;;;;;;2.93;100.00;102828.91;8318465;28;20037;-64
2022/03/18 02:19:19;;;;;;;29.70;15.73;;;;;;;2.98;100.00;102837.72;8322851;28;20034;-64
2022/03/18 02:23:20;;;;;;;35.42;15.95;;;;;;;2.79;100.00;102841.72;8322911;28;20094;-65
2022/03/18 02:27:21;;;;;;;34.13;16.23;;;;;;;2.79;100.00;102841.72;8324635;28;20406;-65
2022/03/18 02:31:22;;;;;;;31.95;14.77;;;;;;;2.82;100.00;102852.34;8324361;28;20037;-65
2022/03/18 02:35:22;;;;;;;41.45;16.38;;;;;;;2.91;100.00;102857.47;8324577;28;20087;-67
2022/03/18 02:39:23;;;;;;;34.17;14.85;;;;;;;3.12;100.00;102854.31;8324472;28;20052;-65
2022/03/18 02:43:23;;;;;;;34.55;14.75;;;;;;;3.13;100.00;102866.75;8324612;28;20251;-65
2022/03/18 02:47:25;;;;;;;23.58;13.63;;;;;;;2.93;100.00;102860.97;8324329;28;20033;-65
2022/03/18 02:51:25;;;;;;;26.17;13.80;;;;;;;2.74;100.00;102867.66;8323847;28;20025;-65
2022/03/18 02:55:26;;;;;;;27.55;13.45;;;;;;;2.59;100.00;102873.31;8321937;28;20071;-65
2022/03/18 02:59:27;;;;;;;27.15;13.07;;;;;;;2.49;100.00;102885.13;8322554;28;20048;-65
2022/03/18 03:03:27;;;;;;;27.83;13.63;;;;;;;2.64;100.00;102889.25;8355690;28;20448;-65
2022/03/18 03:07:59;;;;;;;29.02;14.18;;;;;;;2.69;100.00;102896.28;8354732;28;20124;-65
2022/03/18 03:11:48;;;;;;;31.52;14.70;;;;;;;2.88;100.00;102902.97;8323936;28;20037;-65
2022/03/18 03:15:49;;;;;;;35.75;16.50;;;;;;;2.97;100.00;102889.41;8321995;28;20025;-65
2022/03/18 03:19:49;;;;;;;35.97;15.02;;;;;;;2.90;100.00;102903.78;8323612;28;20029;-65
2022/03/18 03:23:49;;;;;;;33.03;14.85;;;;;;;2.95;100.00;102911.72;8323456;28;20107;-65
2022/03/18 03:27:52;;;;;;;37.78;16.17;;;;;;;3.03;100.00;102916.00;8321651;28;20502;-65
2022/03/18 03:31:52;;;;;;;38.00;16.50;;;;;;;3.21;100.00;102915.56;8339266;28;20137;-65
2022/03/18 03:35:53;;;;;;;41.92;17.38;;;;;;;3.26;100.00;102912.81;8321684;28;20034;-65
2022/03/18 03:39:55;;;;;;;34.03;14.65;;;;;;;3.24;100.00;102914.63;8338057;28;20033;-65
2022/03/18 03:43:55;;;;;;;33.50;15.07;;;;;;;3.10;100.00;102914.94;8323141;28;20038;-65
2022/03/18 03:47:55;;;;;;;37.60;16.63;;;;;;;3.06;100.00;102915.94;8304651;28;20121;-65
2022/03/18 03:51:56;;;;;;;37.95;16.42;;;;;;;3.04;100.00;102923.09;8320997;28;20136;-65
2022/03/18 03:55:56;;;;;;;36.08;16.67;;;;;;;2.89;100.00;102928.75;8313828;28;20044;-65
2022/03/18 03:59:57;;;;;;;32.33;16.10;;;;;;;2.90;100.00;102919.81;8349782;28;20088;-65
2022/03/18 04:03:58;;;;;;;34.25;14.88;;;;;;;2.92;100.00;102923.34;8315528;28;20073;-65
2022/03/18 04:07:59;;;;;;;29.65;15.23;;;;;;;2.99;100.00;102932.97;8321984;28;20038;-65
2022/03/18 04:11:59;;;;;;;32.22;16.13;;;;;;;3.10;100.00;102949.66;8322396;28;20045;-65
2022/03/18 04:15:59;;;;;;;31.83;15.13;;;;;;;2.93;100.00;102957.16;8317905;28;20045;-65
2022/03/18 04:20:00;;;;;;;38.72;14.82;;;;;;;2.63;100.00;102957.81;8320545;28;20037;-65
2022/03/18 04:24:00;;;;;;;35.92;16.70;;;;;;;2.64;100.00;102970.25;8320846;28;20033;-65
2022/03/18 04:28:01;;;;;;;35.20;15.80;;;;;;;2.66;100.00;102965.78;8321993;28;20033;-65
2022/03/18 04:32:02;;;;;;;34.47;15.93;;;;;;;2.66;100.00;102962.22;8303985;28;20564;-65
2022/03/18 04:36:03;;;;;;;34.92;15.50;;;;;;;2.96;100.00;102972.25;8321790;28;20577;-65
2022/03/18 04:40:05;;;;;;;30.70;15.38;;;;;;;2.58;100.00;102975.72;8353501;28;20104;-65
2022/03/18 04:44:05;;;;;;;32.92;15.50;;;;;;;2.49;100.00;102975.88;8321852;28;20371;-65
2022/03/18 04:48:05;;;;;;;36.38;15.32;;;;;;;2.49;100.00;102954.53;8320296;28;20033;-65
2022/03/18 04:52:06;;;;;;;32.38;15.60;;;;;;;2.74;100.00;102977.16;8320304;28;20056;-65
2022/03/18 04:57:15;;;;;;;39.35;16.75;;;;;;;2.65;100.00;102976.47;8321518;28;20490;-65
2022/03/18 05:00:28;;;;;;;34.38;16.27;;;;;;;2.18;100.00;102972.03;8320240;28;20045;-65
2022/03/18 05:04:28;;;;;;;37.10;16.40;;;;;;;2.33;100.00;102969.09;8324297;28;20345;-65
2022/03/18 05:08:29;;;;;;;36.63;17.27;;;;;;;2.36;100.00;102974.38;8326495;28;20533;-65
2022/03/18 05:12:31;;;;;;;36.72;15.43;;;;;;;2.63;100.00;102984.53;8327106;28;20034;-65
2022/03/18 05:16:31;;;;;;;36.63;15.80;;;;;;;2.29;100.00;102991.41;8324959;28;20045;-65
2022/03/18 05:20:32;;;;;;;39.25;15.60;;;;;;;2.00;100.00;103007.94;8327251;28;20038;-65
2022/03/18 05:24:32;;;;;;;37.40;15.30;;;;;;;2.13;100.00;103013.91;8317952;28;20041;-65
2022/03/18 05:28:32;;;;;;;39.33;14.40;;;;;;;1.89;100.00;103016.97;8324002;28;20033;-65
2022/03/18 05:32:33;;;;;;;32.72;14.55;;;;;;;1.96;100.00;103016.88;8323818;28;20060;-65
2022/03/18 05:36:34;;;;;;;37.13;14.90;;;;;;;1.94;100.00;103017.81;8321947;28;20119;-65
2022/03/18 05:40:34;;;;;;;26.70;12.75;;;;;;;1.73;100.00;103029.69;8312805;28;20673;-65
2022/03/18 05:44:35;;;;;;;32.00;15.38;;;;;;;1.85;100.00;103040.19;8314427;28;20033;-65
2022/03/18 05:48:36;;;;;;;46.70;15.32;;;;;;;2.08;100.00;103048.69;8320515;28;20490;-65
2022/03/18 05:52:36;;;;;;;30.38;14.23;;;;;;;1.67;100.00;103058.22;8321188;28;20037;-65
2022/03/18 05:56:53;;;;;;;35.92;15.10;;;;;;;1.86;100.00;103057.94;8320295;28;20045;-65
2022/03/18 06:00:54;;;;;;;36.33;13.88;;;;;;;1.54;100.00;103060.22;8317563;28;20056;-65
2022/03/18 06:04:54;;;;;;;32.35;15.30;;;;;;;1.70;100.00;103071.50;8319533;28;20128;-65
2022/03/18 06:13:15;;;;;;;33.22;14.30;;;;;;;1.54;100.00;103077.97;8319982;28;20084;-65
2022/03/18 06:17:15;;;;;;;40.78;16.50;;;;;;;1.62;100.00;103081.44;8317844;28;20041;-65
2022/03/18 06:21:16;;;;;;;38.78;17.10;;;;;;;1.85;100.00;103092.63;8316983;28;20410;-65
2022/03/18 06:25:16;;;;;;;39.45;15.73;;;;;;;1.89;100.00;103086.34;8314257;28;20147;-65
2022/03/18 06:29:17;;;;;;;35.08;16.30;;;;;;;2.53;100.00;103100.41;8311244;28;20045;-65
2022/03/18 06:33:17;;;;;;;35.38;15.52;;;;;;;2.52;100.00;103108.44;8317019;28;20537;-65
2022/03/18 06:37:18;;;;;;;34.33;13.85;;;;;;;2.75;100.00;103100.91;8314854;28;20471;-65
2022/03/18 06:41:19;;;;;;;27.92;12.20;;;;;;;2.87;100.00;103112.22;8321566;28;20033;-65
2022/03/18 06:45:21;;;;;;;31.92;12.70;;;;;;;2.95;100.00;103109.41;8325395;28;20042;-65
2022/03/18 06:49:22;;;;;;;27.38;13.43;;;;;;;3.22;100.00;103109.78;8321061;28;20095;-65
2022/03/18 06:53:22;;;;;;;34.55;13.63;;;;;;;3.69;100.00;103106.97;8321362;28;20124;-65
2022/03/18 06:57:23;;;;;;;29.45;12.55;;;;;;;3.88;100.00;103113.66;8320800;28;20060;-65
2022/03/18 07:01:24;;;;;;;36.28;12.93;;;;;;;4.09;100.00;103123.88;8321657;28;20124;-65
2022/03/18 07:05:24;;;;;;;25.67;13.55;;;;;;;4.82;100.00;103127.44;8321903;28;20076;-65
2022/03/18 07:09:24;;;;;;;29.95;12.52;;;;;;;4.96;98.50;103130.59;8331176;28;20041;-65
2022/03/18 07:13:25;;;;;;;32.85;12.40;;;;;;;4.78;96.81;103141.81;8330751;28;20030;-65
2022/03/18 07:18:26;;;;;;;37.88;12.65;;;;;;;5.24;95.91;103153.06;8330664;28;20448;-65
2022/03/18 07:21:46;;;;;;;33.63;12.30;;;;;;;5.44;98.04;103148.03;8329998;28;20049;-65
2022/03/18 07:25:48;;;;;;;20.48;10.73;;;;;;;5.73;97.06;103148.94;8328315;28;20038;-65
2022/03/18 07:29:48;;;;;;;25.00;11.00;;;;;;;6.29;94.73;103149.91;8330610;28;20041;-65
2022/03/18 07:33:51;;;;;;;21.63;9.98;;;;;;;6.43;92.29;103149.47;8328757;28;20126;-65
2022/03/18 07:37:52;;;;;;;20.95;9.75;;;;;;;6.70;90.94;103149.41;8327729;28;20041;-65
2022/03/18 07:41:52;;;;;;;25.38;10.45;;;;;;;7.03;91.36;103142.88;8334506;28;20072;-65
2022/03/18 07:45:52;;;;;;;21.25;9.60;;;;;;;7.45;91.93;103143.13;8327240;28;20069;-66
2022/03/18 07:49:53;;;;;;;24.63;9.02;;;;;;;7.66;89.08;103147.72;8326488;28;20041;-66
2022/03/18 07:53:53;;;;;;;19.50;8.57;;;;;;;8.02;86.90;103140.91;8327743;28;20410;-66
2022/03/18 07:57:55;;;;;;;19.08;8.82;;;;;;;8.35;87.44;103138.75;8325538;28;20092;-66
2022/03/18 08:01:55;;;;;;;20.75;8.55;;;;;;;8.40;84.74;103137.59;8324512;28;20037;-66
2022/03/18 08:05:56;;;;;;;17.73;8.10;;;;;;;8.35;85.03;103119.88;8325095;28;20057;-66
2022/03/18 08:09:56;;;;;;;17.88;7.50;;;;;;;8.61;83.13;103125.94;8325327;28;20037;-66
2022/03/18 08:13:56;;;;;;;15.95;7.72;;;;;;;8.57;81.28;103129.69;8326977;28;20398;-66
2022/03/18 08:17:57;;;;;;;21.70;7.65;;;;;;;8.90;80.84;103138.16;8322336;28;20087;-66
2022/03/18 08:21:59;;;;;;;19.67;7.97;;;;;;;9.39;80.84;103133.22;8321861;28;20456;-66
2022/03/18 08:26:03;;;;;;;21.42;6.75;;;;;;;9.53;77.77;103143.41;8320798;28;20041;-65
2022/03/18 08:30:07;;;;;;;15.65;6.55;;;;;;;9.26;76.33;103152.75;8319304;28;20521;-65
2022/03/18 08:34:08;;;;;;;15.63;6.30;;;;;;;9.59;75.72;103151.25;8319168;28;20059;-65
2022/03/18 08:38:09;;;;;;;18.23;6.55;;;;;;;9.66;77.01;103139.19;8321622;28;20707;-65
2022/03/18 08:42:10;;;;;;;28.45;7.85;;;;;;;9.79;75.64;103143.09;8323873;28;20038;-65
2022/03/18 08:46:10;;;;;;;18.10;6.05;;;;;;;9.84;73.77;103157.25;8325731;28;20513;-65
2022/03/18 08:50:12;;;;;;;21.90;6.30;;;;;;;9.78;73.19;103157.53;8315893;28;20132;-65
2022/03/18 08:54:12;;;;;;;16.83;5.63;;;;;;;10.00;72.63;103164.56;8349138;28;20052;-65
2022/03/18 08:58:13;;;;;;;17.98;5.95;;;;;;;10.15;72.37;103170.25;8325314;28;20049;-65
2022/03/18 09:02:14;;;;;;;17.42;6.07;;;;;;;10.22;73.54;103174.41;8325038;28;20068;-65
2022/03/18 09:06:14;;;;;;;18.40;6.35;;;;;;;10.39;73.47;103178.03;8323679;28;20493;-65
2022/03/18 09:10:15;;;;;;;20.85;6.10;;;;;;;10.28;72.72;103190.34;8324818;28;20033;-65
2022/03/18 09:14:15;;;;;;;17.58;5.95;;;;;;;10.42;72.33;103186.00;8324707;28;20036;-65
2022/03/18 09:18:16;;;;;;;13.65;5.60;;;;;;;10.74;70.46;103193.41;8324496;28;20037;-65
2022/03/18 09:22:17;;;;;;;12.80;5.10;;;;;;;11.29;70.06;103188.78;8324520;28;20046;-65
2022/03/18 09:26:18;;;;;;;11.85;4.63;;;;;;;12.50;66.12;103199.25;8326474;28;20095;-65
2022/03/18 09:30:18;;;;;;;13.65;3.80;;;;;;;13.89;58.08;103198.00;8324523;28;20037;-65
2022/03/18 09:34:24;;;;;;;12.00;3.80;;;;;;;15.17;54.03;103203.97;8322451;28;20068;-65
2022/03/18 09:38:24;;;;;;;10.23;3.83;;;;;;;15.80;52.30;103205.94;8323628;28;20033;-65
2022/03/18 09:42:25;;;;;;;9.13;3.78;;;;;;;16.50;52.75;103221.75;8324230;28;20053;-65
2022/03/18 09:46:25;;;;;;;8.25;3.60;;;;;;;15.96;51.35;103217.50;8323313;28;20033;-65
2022/03/18 09:50:27;;;;;;;13.25;4.55;;;;;;;17.03;50.96;103216.75;8321136;28;20033;-65
2022/03/18 09:54:30;;;;;;;8.25;3.40;;;;;;;17.46;48.35;103225.28;8323762;28;20033;-65
2022/03/18 09:58:30;;;;;;;6.03;2.80;;;;;;;16.70;47.82;103229.31;8323747;28;20926;-65
2022/03/18 10:02:33;;;;;;;8.50;3.30;;;;;;;16.81;48.14;103223.94;8322817;28;20065;-65
2022/03/18 10:06:34;;;;;;;9.15;4.05;;;;;;;16.51;48.72;103234.41;8321657;28;20469;-65
2022/03/18 10:10:45;;;;;;;4.82;2.47;;;;;;;17.16;48.36;103231.22;8323178;28;20089;-65
2022/03/18 10:14:45;;;;;;;12.77;3.42;;;;;;;17.32;48.01;103239.09;8354762;28;20029;-65
2022/03/18 10:18:49;;;;;;;6.47;3.00;;;;;;;17.61;46.16;103229.56;8323005;28;20436;-65
2022/03/18 10:22:51;;;;;;;6.83;3.03;;;;;;;17.74;46.98;103227.59;8322693;28;20111;-65
2022/03/18 10:26:51;;;;;;;10.93;3.55;;;;;;;18.73;45.19;103226.78;8322662;28;20060;-65
2022/03/18 10:31:12;;;;;;;8.35;2.70;;;;;;;18.98;44.06;103215.50;8322342;28;20029;-65
2022/03/18 10:39:50;;;;;;;8.35;3.13;;;;;;;19.02;44.55;103217.84;8317852;28;20474;-65
2022/03/18 10:43:53;;;;;;;3.95;2.38;;;;;;;18.90;44.10;103221.63;8321225;28;20394;-65
2022/03/18 10:47:54;;;;;;;5.38;1.70;;;;;;;18.85;42.18;103226.63;8322159;28;20068;-65
2022/03/18 10:52:08;;;;;;;7.20;2.40;;;;;;;18.43;43.94;103216.50;8321217;28;20370;-64
2022/03/18 10:56:09;;;;;;;7.47;2.20;;;;;;;18.98;44.04;103216.38;8316020;28;20430;-65
2022/03/18 11:00:10;;;;;;;5.28;1.40;;;;;;;19.29;40.70;103215.56;8326683;28;20061;-65
2022/03/18 11:04:11;;;;;;;6.90;1.73;;;;;;;19.84;41.13;103211.59;8320649;28;20033;-65
2022/03/18 11:08:14;;;;;;;4.93;1.80;;;;;;;19.25;42.67;103205.78;8312032;28;20029;-65
2022/03/18 11:12:14;;;;;;;6.50;2.38;;;;;;;20.59;42.61;103198.41;8319509;28;20501;-65
2022/03/18 11:16:20;;;;;;;4.87;2.13;;;;;;;21.28;39.40;103195.47;8316490;28;20410;-65
2022/03/18 11:20:23;;;;;;;4.00;1.75;;;;;;;19.88;41.84;103201.25;8318679;28;20302;-65
2022/03/18 11:24:24;;;;;;;3.85;1.77;;;;;;;19.58;42.21;103204.81;8320367;28;20091;-65
2022/03/18 11:28:25;;;;;;;5.35;1.45;;;;;;;20.05;40.23;103197.84;8320554;28;20034;-65
2022/03/18 11:32:26;;;;;;;3.80;1.63;;;;;;;21.43;39.31;103195.91;8320166;28;20037;-65
2022/03/18 11:36:27;;;;;;;6.53;1.80;;;;;;;20.45;40.29;103196.03;8319513;28;20034;-65
2022/03/18 11:40:30;;;;;;;4.85;1.85;;;;;;;20.72;38.26;103199.00;8321387;28;20044;-65
2022/03/18 11:44:43;;;;;;;5.72;1.88;;;;;;;20.45;40.05;103190.53;8315459;28;20068;-65
2022/03/18 11:48:49;;;;;;;2.42;1.20;;;;;;;20.50;39.10;103189.13;8316441;28;20553;-65
2022/03/18 11:52:57;;;;;;;3.05;1.20;;;;;;;19.66;39.09;103187.63;8319658;28;20617;-65
2022/03/18 11:56:58;;;;;;;1.75;1.13;;;;;;;20.07;38.71;103182.94;8319249;28;20037;-65
2022/03/18 12:00:58;;;;;;;4.40;1.40;;;;;;;19.61;39.66;103179.81;8319117;28;20071;-65
2022/03/18 12:04:59;;;;;;;4.10;1.30;;;;;;;19.63;40.83;103165.94;8317515;28;20038;-65
2022/03/18 12:09:00;;;;;;;4.53;1.70;;;;;;;20.65;39.98;103164.84;8319148;28;20033;-65
2022/03/18 12:13:02;;;;;;;7.72;1.60;;;;;;;20.24;39.03;103159.50;8318669;28;20045;-65
2022/03/18 12:17:03;;;;;;;5.55;1.27;;;;;;;20.54;38.14;103156.69;8317662;28;20174;-65
2022/03/18 12:21:03;;;;;;;3.28;1.33;;;;;;;20.66;38.26;103150.06;8318854;28;20049;-65
2022/03/18 12:25:06;;;;;;;4.68;1.33;;;;;;;20.77;37.79;103147.22;8318408;28;20053;-65
2022/03/18 12:29:08;;;;;;;4.32;1.10;;;;;;;20.73;39.12;103145.72;8317501;28;20214;-65
2022/03/18 12:33:09;;;;;;;2.95;0.80;;;;;;;20.42;38.38;103146.81;8324971;28;20444;-65
2022/03/18 12:37:17;;;;;;;5.23;1.00;;;;;;;20.00;38.65;103137.81;8321131;28;20106;-65
2022/03/18 12:41:21;;;;;;;2.97;1.15;;;;;;;19.57;39.33;103145.41;8311643;28;20291;-65
2022/03/18 12:45:34;;;;;;;3.67;0.98;;;;;;;20.81;37.28;103124.78;8313591;28;20045;-65
2022/03/18 12:49:36;;;;;;;4.10;1.05;;;;;;;20.19;38.36;103128.84;8317047;28;20521;-65
2022/03/18 12:53:36;;;;;;;5.28;1.05;;;;;;;19.93;38.70;103122.03;8317726;28;20505;-65
2022/03/18 12:57:38;;;;;;;4.55;1.20;;;;;;;18.15;40.39;103131.19;8318445;28;20481;-65
2022/03/18 13:01:50;;;;;;;4.90;1.50;;;;;;;16.55;43.07;103121.19;8317728;28;20046;-65
2022/03/18 13:05:52;;;;;;;5.07;1.50;;;;;;;15.48;44.17;103110.94;8318502;28;20033;-65
2022/03/18 13:09:53;;;;;;;4.95;1.10;;;;;;;15.94;43.98;103107.59;8316814;28;20494;-65
2022/03/18 13:13:54;;;;;;;3.38;0.90;;;;;;;15.58;44.46;103106.53;8313483;28;20045;-65
2022/03/18 13:18:08;;;;;;;3.58;1.00;;;;;;;15.22;44.33;103106.38;8316409;28;20042;-65
2022/03/18 13:22:17;;;;;;;3.70;1.00;;;;;;;15.14;44.79;103111.53;8316063;28;20052;-65
2022/03/18 13:26:20;;;;;;;2.25;1.10;;;;;;;15.08;44.97;103098.31;8315817;28;20029;-65
2022/03/18 13:34:42;;;;;;;5.65;1.20;;;;;;;15.12;45.16;103101.69;8319297;28;20030;-65
2022/03/18 13:38:47;;;;;;;5.28;1.33;;;;;;;14.89;44.31;103092.41;8320241;28;20498;-65
2022/03/18 13:42:56;;;;;;;;;;;;;;;15.10;44.83;103098.22;8320975;28;20103;-65
2022/03/18 13:47:02;;;;;;;6.13;1.33;;;;;;;15.10;43.66;103085.44;8319733;28;19917;-65
2022/03/18 13:51:06;;;;;;;1.95;1.10;;;;;;;15.06;43.48;103075.75;8312412;28;20049;-65
2022/03/18 13:55:07;;;;;;;2.63;0.85;;;;;;;14.95;44.09;103082.94;8321225;28;20410;-65
2022/03/18 13:59:16;;;;;;;2.25;1.10;;;;;;;15.15;43.13;103080.53;8318982;28;20041;-65
2022/03/18 14:03:16;;;;;;;3.05;0.80;;;;;;;15.25;42.60;103087.09;8319103;28;20045;-65
2022/03/18 14:07:16;;;;;;;4.32;1.10;;;;;;;15.14;42.53;103070.63;8318588;28;20076;-65
2022/03/18 14:12:33;;;;;;;3.28;1.05;;;;;;;15.34;43.71;103074.69;8318564;28;20094;-65
2022/03/18 14:15:53;;;;;;;3.50;1.00;;;;;;;15.38;42.39;103081.69;8317922;28;20517;-65
2022/03/18 14:20:12;;;;;;;5.80;0.80;;;;;;;15.24;43.52;103069.00;8319538;28;20451;-65
2022/03/18 14:24:21;;;;;;;3.65;0.95;;;;;;;15.28;42.85;103078.69;8319591;28;20041;-65
2022/03/18 14:28:25;;;;;;;6.28;1.05;;;;;;;15.22;43.19;103081.84;8317604;28;20304;-65
2022/03/18 14:32:25;;;;;;;5.13;1.15;;;;;;;15.12;43.02;103071.69;8319685;28;20037;-65
2022/03/18 14:36:25;;;;;;;4.53;0.90;;;;;;;15.18;42.55;103072.16;8318944;28;20034;-65
2022/03/18 14:40:26;;;;;;;4.35;1.10;;;;;;;15.27;43.19;103063.34;8318577;28;20262;-65
2022/03/18 14:44:26;;;;;;;4.63;1.42;;;;;;;15.20;42.50;103056.59;8318968;28;20037;-65
2022/03/18 14:48:27;;;;;;;3.70;1.10;;;;;;;15.24;42.80;103062.66;8316718;28;20064;-65
2022/03/18 14:52:27;;;;;;;4.68;1.00;;;;;;;15.17;42.68;103056.78;8318439;28;20785;-65
2022/03/18 14:56:30;;;;;;;4.60;1.20;;;;;;;15.20;41.84;103053.84;8317450;28;20140;-65
2022/03/18 15:00:32;;;;;;;3.72;1.00;;;;;;;15.09;41.96;103051.00;8314355;28;20229;-65
2022/03/18 15:04:32;;;;;;;2.53;1.10;;;;;;;15.05;42.27;103046.75;8323567;28;20042;-65
2022/03/18 15:08:33;;;;;;;3.85;0.93;;;;;;;15.13;42.17;103049.78;8310697;28;20521;-65
2022/03/18 15:12:33;;;;;;;3.13;1.15;;;;;;;15.13;42.34;103044.34;8315320;28;20041;-65
2022/03/18 15:16:34;;;;;;;3.67;1.15;;;;;;;15.03;41.77;103048.72;8317961;28;20113;-65
2022/03/18 15:20:38;;;;;;;1.20;0.68;;;;;;;15.07;43.40;103043.94;8317400;28;20109;-66
2022/03/18 15:24:40;;;;;;;3.60;1.10;;;;;;;15.09;42.83;103050.13;8308997;28;20049;-66
2022/03/18 15:28:42;;;;;;;3.67;1.13;;;;;;;14.97;42.13;103051.84;8312229;28;20053;-66
2022/03/18 15:32:42;;;;;;;2.50;1.05;;;;;;;14.90;42.72;103046.94;8313516;28;20113;-66
2022/03/18 15:36:43;;;;;;;5.60;1.30;;;;;;;14.84;42.45;103042.81;8314887;28;20045;-66
2022/03/18 15:40:43;;;;;;;5.05;1.33;;;;;;;14.95;43.79;103055.69;8315646;28;20040;-66
2022/03/18 15:44:46;;;;;;;2.78;1.00;;;;;;;14.89;42.21;103069.72;8314804;28;20080;-66
2022/03/18 15:48:47;;;;;;;2.55;1.02;;;;;;;14.82;42.30;103063.81;8314727;28;20030;-66
2022/03/18 15:52:49;;;;;;;3.00;1.27;;;;;;;14.78;41.73;103048.69;8317176;28;20048;-66
2022/03/18 15:56:51;;;;;;;1.58;1.00;;;;;;;14.69;42.14;103060.19;8314897;28;20048;-64
2022/03/18 16:00:52;;;;;;;5.75;1.13;;;;;;;14.65;43.54;103060.50;8314775;28;20056;-63
2022/03/18 16:04:53;;;;;;;3.35;1.10;;;;;;;14.49;43.45;103052.50;8315090;28;20069;-63
2022/03/18 16:08:56;;;;;;;4.53;1.20;;;;;;;14.40;43.57;103053.16;8333649;28;20561;-63
2022/03/18 16:12:58;;;;;;;5.28;1.17;;;;;;;14.26;44.03;103052.31;8311681;28;20152;-63
2022/03/18 16:16:58;;;;;;;5.25;1.45;;;;;;;14.22;44.14;103057.06;8314052;28;20052;-63
2022/03/18 16:21:01;;;;;;;5.83;1.40;;;;;;;14.23;44.28;103050.69;8328111;28;20056;-63
2022/03/18 16:25:05;;;;;;;5.80;1.20;;;;;;;14.19;44.31;103054.56;8321135;28;20284;-63
2022/03/18 16:29:05;;;;;;;4.67;1.30;;;;;;;14.13;45.02;103060.41;8313850;28;20488;-63
2022/03/18 16:33:06;;;;;;;6.77;1.37;;;;;;;14.01;46.06;103061.22;8315535;28;20030;-63
2022/03/18 16:37:06;;;;;;;4.10;1.60;;;;;;;13.93;45.80;103068.97;8314758;28;20335;-63
2022/03/18 16:41:07;;;;;;;2.50;1.40;;;;;;;13.90;46.29;103069.19;8313858;28;20041;-62
2022/03/18 16:45:09;;;;;;;3.28;1.55;;;;;;;13.77;46.52;103079.13;8308473;28;20259;-62
2022/03/18 16:49:24;;;;;;;4.00;1.48;;;;;;;13.70;46.72;103072.34;8303607;28;20045;-62
2022/03/18 16:53:27;;;;;;;4.97;1.83;;;;;;;13.60;47.23;103077.47;8305592;28;20402;-62
2022/03/18 16:57:28;;;;;;;5.40;2.20;;;;;;;13.61;47.48;103078.34;8304079;28;20037;-63
2022/03/18 17:02:00;;;;;;;7.28;2.22;;;;;;;13.54;47.67;103076.97;8310685;28;20048;-62
2022/03/18 17:05:50;;;;;;;5.15;1.80;;;;;;;13.64;46.89;103072.72;8317800;28;20049;-61
2022/03/18 17:09:50;;;;;;;6.97;1.88;;;;;;;13.53;47.54;103083.41;8320341;28;20041;-61
2022/03/18 17:13:51;;;;;;;4.25;1.77;;;;;;;13.49;47.50;103079.13;8320186;28;20048;-64
2022/03/18 17:17:51;;;;;;;5.70;1.90;;;;;;;13.36;48.49;103083.59;8319097;28;20040;-61
2022/03/18 17:21:52;;;;;;;7.43;2.55;;;;;;;13.26;48.79;103098.72;8319396;28;20049;-61
2022/03/18 17:25:52;;;;;;;4.57;1.83;;;;;;;13.24;49.07;103100.66;8322576;28;20037;-59
2022/03/18 17:29:53;;;;;;;5.00;1.77;;;;;;;13.21;49.71;103106.28;8321121;28;20045;-60
2022/03/18 17:33:54;;;;;;;4.45;1.90;;;;;;;13.14;50.52;103099.44;8319929;28;20284;-59
2022/03/18 17:37:56;;;;;;;5.90;1.95;;;;;;;13.04;51.33;103107.31;8321072;28;20707;-58
2022/03/18 17:41:56;;;;;;;7.22;1.83;;;;;;;12.89;52.75;103104.59;8319544;28;20045;-61
2022/03/18 17:45:57;;;;;;;7.75;2.35;;;;;;;12.84;53.46;103107.59;8309180;28;20052;-61
2022/03/18 17:49:57;;;;;;;5.13;2.28;;;;;;;12.73;54.41;103115.53;8308990;28;20041;-62
2022/03/18 17:53:58;;;;;;;6.20;2.55;;;;;;;12.74;54.76;103121.81;8313692;28;20045;-64
2022/03/18 17:57:58;;;;;;;7.47;2.33;;;;;;;12.63;55.79;103127.00;8313979;28;20037;-64
2022/03/18 18:01:58;;;;;;;7.45;2.65;;;;;;;12.52;56.59;103135.78;8301500;28;20041;-64
2022/03/18 18:05:59;;;;;;;7.05;3.13;;;;;;;12.43;57.35;103132.72;8315520;28;20045;-64
2022/03/18 18:09:59;;;;;;;8.60;3.47;;;;;;;12.43;57.89;103138.13;8296076;28;20128;-64
2022/03/18 18:14:01;;;;;;;8.40;2.80;;;;;;;12.33;58.69;103142.34;8312006;28;20413;-64
2022/03/18 18:18:02;;;;;;;8.82;3.50;;;;;;;12.19;59.31;103142.25;8314301;28;20128;-64
2022/03/18 18:22:06;;;;;;;9.20;3.50;;;;;;;12.12;59.94;103151.72;8312740;28;20052;-64
2022/03/18 18:26:17;;;;;;;9.10;3.30;;;;;;;12.06;60.39;103144.81;8311251;28;20049;-64
2022/03/18 18:30:18;;;;;;;11.70;3.35;;;;;;;12.04;60.92;103160.28;8310369;28;20037;-64
2022/03/18 18:34:19;;;;;;;8.93;2.85;;;;;;;12.03;60.86;103160.34;8313433;28;20116;-64
2022/03/18 18:38:19;;;;;;;9.27;3.67;;;;;;;11.98;61.33;103162.47;8295394;28;20038;-64
2022/03/18 18:42:20;;;;;;;9.40;3.28;;;;;;;11.97;61.78;103160.69;8313777;28;20064;-64
2022/03/18 18:46:22;;;;;;;7.97;2.95;;;;;;;11.89;62.21;103164.72;8300466;28;20047;-64
2022/03/18 18:50:22;;;;;;;10.85;3.45;;;;;;;11.81;62.58;103161.53;8310437;28;20037;-64